Time;durP1;ratioP1;P1;durP2;ratioP2;P2;SDS_P1;SDS_P2;PMS_P1;PMS_P2;Temp;Humidity;BMP_temperature;BMP_pressure;BME280_temperature;BME280_humidity;BME280_pressure;Samples;Min_cycle;Max_cycle;Signal;HPM_P1;HPM_P2
2022/05/08 00:01:49;;;;;;;24.33;16.13;;;;;;;5.79;72.36;93961.81;5044434;28;20043;-58
2022/05/08 00:04:14;;;;;;;20.67;12.80;;;;;;;5.69;72.19;93951.66;5046591;28;20036;-57
2022/05/08 00:06:40;;;;;;;18.15;10.57;;;;;;;5.69;72.62;93963.34;5046468;28;20022;-55
2022/05/08 00:09:05;;;;;;;11.30;6.97;;;;;;;5.78;72.05;93952.09;5046700;28;20021;-56
2022/05/08 00:11:31;;;;;;;14.23;5.03;;;;;;;5.68;72.83;93948.16;5046602;28;20020;-57
2022/05/08 00:13:56;;;;;;;6.55;4.72;;;;;;;5.45;72.81;93926.84;5045010;28;20045;-56
2022/05/08 00:16:22;;;;;;;7.78;4.25;;;;;;;5.37;73.08;93945.81;5046458;28;20050;-57
2022/05/08 00:18:48;;;;;;;6.05;4.65;;;;;;;5.35;74.15;93945.53;5046496;28;20029;-56
2022/05/08 00:21:13;;;;;;;8.32;4.43;;;;;;;5.58;73.80;93929.78;5046577;28;20459;-57
2022/05/08 00:23:39;;;;;;;10.18;5.95;;;;;;;5.63;71.41;93934.50;5046072;28;20021;-57
2022/05/08 00:26:07;;;;;;;12.45;5.95;;;;;;;5.51;71.47;93938.50;5046143;28;20029;-57
2022/05/08 00:28:34;;;;;;;11.43;5.82;;;;;;;5.32;71.56;93935.59;5045683;28;20494;-56
2022/05/08 00:30:59;;;;;;;8.95;4.90;;;;;;;5.34;71.91;93936.59;5046208;28;20502;-58
2022/05/08 00:33:24;;;;;;;7.93;5.45;;;;;;;5.24;72.37;93934.63;5046241;28;20032;-56
2022/05/08 00:35:50;;;;;;;14.10;7.30;;;;;;;5.32;72.45;93941.06;5046262;28;20039;-57
2022/05/08 00:38:15;;;;;;;11.57;6.28;;;;;;;5.41;72.43;93942.78;5046612;28;20021;-56
2022/05/08 00:40:41;;;;;;;10.15;6.18;;;;;;;5.47;71.99;93944.25;5045273;28;20514;-56
2022/05/08 00:43:36;;;;;;;8.57;6.07;;;;;;;5.48;71.71;93943.00;5046248;28;20025;-52
2022/05/08 00:46:09;;;;;;;12.02;5.50;;;;;;;5.21;71.66;93935.63;5045893;28;20116;-56
2022/05/08 00:48:34;;;;;;;15.00;7.10;;;;;;;4.98;72.50;93934.22;5045107;28;20032;-59
2022/05/08 00:51:13;;;;;;;11.55;6.30;;;;;;;5.11;72.28;93929.69;5046020;28;20048;-59
2022/05/08 00:53:41;;;;;;;10.07;6.03;;;;;;;4.96;72.38;93936.69;5045871;28;20025;-59
2022/05/08 00:56:11;;;;;;;8.35;5.35;;;;;;;4.88;72.16;93935.69;5045806;28;20032;-59
2022/05/08 00:58:38;;;;;;;9.15;5.82;;;;;;;4.68;71.81;93927.78;5045776;28;20474;-59
2022/05/08 01:01:04;;;;;;;14.02;8.95;;;;;;;4.84;72.83;93935.22;5045804;28;20493;-59
2022/05/08 01:03:30;;;;;;;12.10;6.97;;;;;;;5.00;71.92;93937.19;5045790;28;20036;-59
2022/05/08 01:05:56;;;;;;;7.32;5.53;;;;;;;5.01;71.56;93927.72;5045938;28;20025;-59
2022/05/08 01:08:23;;;;;;;6.80;4.78;;;;;;;5.04;72.11;93932.94;5042624;28;20079;-59
2022/05/08 01:10:48;;;;;;;9.25;5.13;;;;;;;4.96;72.50;93928.50;5025711;28;20418;-59
2022/05/08 01:13:14;;;;;;;6.20;4.53;;;;;;;4.96;72.28;93931.94;5025288;28;20030;-58
2022/05/08 01:15:44;;;;;;;6.03;4.20;;;;;;;4.88;71.88;93930.22;5024634;28;20032;-59
2022/05/08 01:18:12;;;;;;;7.40;4.60;;;;;;;4.74;72.86;93932.00;5025588;28;20026;-59
2022/05/08 01:20:39;;;;;;;16.83;6.80;;;;;;;4.69;73.17;93932.00;5025961;28;20417;-59
2022/05/08 01:23:05;;;;;;;11.23;6.88;;;;;;;4.66;73.06;93935.75;5026042;28;20025;-59
2022/05/08 01:25:34;;;;;;;8.85;6.20;;;;;;;4.51;74.13;93942.19;5025792;28;20041;-59
2022/05/08 01:28:03;;;;;;;8.13;3.97;;;;;;;4.46;72.69;93942.94;5025879;28;20021;-60
2022/05/08 01:30:29;;;;;;;6.40;4.88;;;;;;;4.60;72.89;93939.22;5025399;28;20022;-59
2022/05/08 01:32:57;;;;;;;6.70;4.47;;;;;;;4.62;72.26;93938.72;5025936;28;20082;-59
2022/05/08 01:35:23;;;;;;;6.57;5.43;;;;;;;4.63;72.39;93943.69;5025917;28;20029;-59
2022/05/08 01:37:49;;;;;;;5.85;4.30;;;;;;;4.41;72.64;93938.25;5025641;28;20022;-59
2022/05/08 01:40:17;;;;;;;9.63;5.35;;;;;;;4.33;72.55;93939.94;5025855;28;20094;-59
2022/05/08 01:42:42;;;;;;;7.85;4.82;;;;;;;4.22;72.47;93936.50;5028429;28;20409;-59
2022/05/08 01:45:08;;;;;;;12.32;6.05;;;;;;;4.02;72.96;93923.78;5028823;28;20025;-59
2022/05/08 01:50:19;;;;;;;9.40;4.97;;;;;;;4.35;72.40;93942.22;5028951;28;20031;-51
2022/05/08 01:52:44;;;;;;;8.63;5.07;;;;;;;4.14;72.24;93930.75;5028977;28;20104;-51
2022/05/08 01:55:10;;;;;;;11.05;5.93;;;;;;;4.11;72.12;93936.47;5028642;28;20694;-51
2022/05/08 01:57:35;;;;;;;9.80;4.57;;;;;;;4.21;71.06;93929.50;5028806;28;20018;-51
2022/05/08 02:00:01;;;;;;;9.48;4.47;;;;;;;4.29;71.19;93936.72;5029070;28;20478;-49
2022/05/08 02:02:26;;;;;;;8.90;4.88;;;;;;;4.30;71.45;93932.75;5048685;28;20024;-50
2022/05/08 02:04:51;;;;;;;6.32;4.20;;;;;;;4.31;70.82;93936.97;5048411;28;20025;-49
2022/05/08 02:07:17;;;;;;;4.70;3.63;;;;;;;4.02;71.19;93939.44;5048669;28;20025;-49
2022/05/08 02:09:44;;;;;;;6.43;3.88;;;;;;;3.67;72.85;93937.13;5048437;28;20024;-49
2022/05/08 02:12:10;;;;;;;9.73;4.70;;;;;;;3.83;72.26;93936.44;5043126;28;20144;-60
2022/05/08 02:14:35;;;;;;;9.30;5.78;;;;;;;3.78;73.83;93937.91;5028160;28;20053;-59
2022/05/08 02:17:01;;;;;;;5.72;4.15;;;;;;;3.94;73.82;93943.91;5028737;28;20029;-56
2022/05/08 02:19:26;;;;;;;11.40;5.00;;;;;;;3.94;73.49;93939.19;5028630;28;20029;-57
2022/05/08 02:21:51;;;;;;;7.18;4.35;;;;;;;3.70;73.62;93947.06;5028576;28;20142;-57
2022/05/08 02:24:17;;;;;;;6.82;4.78;;;;;;;3.65;73.96;93945.81;5028408;28;20030;-58
2022/05/08 02:26:43;;;;;;;5.78;4.35;;;;;;;3.74;73.71;93937.41;5028333;28;20022;-59
2022/05/08 02:29:08;;;;;;;6.93;4.32;;;;;;;3.71;73.46;93930.19;5028587;28;20028;-55
2022/05/08 02:31:34;;;;;;;6.00;4.38;;;;;;;3.64;74.19;93927.16;5028093;28;20108;-56
2022/05/08 02:33:59;;;;;;;9.10;4.60;;;;;;;3.32;74.35;93920.38;5028384;28;20022;-56
2022/05/08 02:36:25;;;;;;;5.22;3.75;;;;;;;3.36;74.05;93918.13;5028057;28;20054;-56
2022/05/08 02:38:50;;;;;;;5.25;3.47;;;;;;;3.43;73.28;93920.41;5028143;28;20032;-57
2022/05/08 02:41:16;;;;;;;4.15;3.25;;;;;;;3.46;72.22;93920.19;5028246;28;20462;-57
2022/05/08 02:43:41;;;;;;;6.85;3.78;;;;;;;3.38;73.20;93918.44;5027735;28;20116;-56
2022/05/08 02:46:06;;;;;;;6.97;4.07;;;;;;;3.27;73.86;93908.19;5028096;28;20018;-56
2022/05/08 02:48:32;;;;;;;6.63;3.88;;;;;;;3.39;73.09;93926.13;5027936;28;20048;-56
2022/05/08 02:50:58;;;;;;;7.40;4.25;;;;;;;3.51;73.02;93918.72;5034915;28;20024;-56
2022/05/08 02:53:23;;;;;;;7.18;3.95;;;;;;;3.65;72.79;93923.97;5047430;28;20021;-57
2022/05/08 02:58:33;;;;;;;5.68;4.32;;;;;;;3.59;73.01;93917.00;5047831;28;20150;-56
2022/05/08 03:00:59;;;;;;;10.30;4.75;;;;;;;3.25;72.58;93923.59;5046579;28;20032;-59
2022/05/08 03:03:25;;;;;;;4.72;3.70;;;;;;;3.12;72.53;93928.72;5047505;28;20513;-57
2022/05/08 03:05:51;;;;;;;7.90;3.90;;;;;;;2.97;73.35;93923.44;5034120;28;20037;-57
2022/05/08 03:08:17;;;;;;;6.82;3.95;;;;;;;2.83;73.84;93924.34;5036212;28;20508;-57
2022/05/08 03:13:27;;;;;;;5.60;3.55;;;;;;;2.87;74.52;93935.78;5042095;28;20083;-57
2022/05/08 03:15:53;;;;;;;6.03;3.28;;;;;;;2.91;74.13;93934.31;5047491;28;20478;-56
2022/05/08 03:18:19;;;;;;;6.45;3.22;;;;;;;2.82;74.34;93926.31;5030544;28;20021;-57
2022/05/08 03:20:44;;;;;;;5.13;3.00;;;;;;;2.76;75.53;93930.25;5027208;28;20032;-56
2022/05/08 03:23:10;;;;;;;7.03;5.05;;;;;;;2.97;74.98;93926.16;5027389;28;20021;-57
2022/05/08 03:25:36;;;;;;;9.82;4.47;;;;;;;3.07;74.43;93930.19;5027368;28;20025;-57
2022/05/08 03:28:02;;;;;;;12.95;7.13;;;;;;;2.83;74.48;93932.53;5027626;28;20104;-60
2022/05/08 03:30:28;;;;;;;23.17;10.25;;;;;;;2.88;73.97;93931.84;5027607;28;20035;-60
2022/05/08 03:32:54;;;;;;;15.70;9.35;;;;;;;3.00;73.46;93930.66;5027294;28;20479;-60
2022/05/08 03:35:19;;;;;;;22.73;9.93;;;;;;;3.06;73.23;93929.44;5027276;28;20017;-60
2022/05/08 03:37:45;;;;;;;12.32;6.53;;;;;;;3.14;73.07;93926.25;5047099;28;20102;-60
2022/05/08 03:40:10;;;;;;;6.40;4.70;;;;;;;3.08;73.21;93926.97;5039478;28;20558;-60
2022/05/08 03:42:36;;;;;;;3.33;3.03;;;;;;;2.79;74.52;93921.13;5036277;28;20078;-60
2022/05/08 03:45:01;;;;;;;6.85;3.65;;;;;;;2.92;74.31;93932.34;5042855;28;20063;-60
2022/05/08 03:47:27;;;;;;;5.90;3.25;;;;;;;2.94;74.22;93929.88;5046586;28;20021;-60
2022/05/08 03:49:53;;;;;;;6.22;3.60;;;;;;;2.96;74.26;93925.44;5046634;28;20074;-60
2022/05/08 03:52:19;;;;;;;5.10;3.35;;;;;;;2.82;74.36;93909.97;5045558;28;20020;-60
2022/05/08 03:54:44;;;;;;;5.63;3.30;;;;;;;3.04;73.62;93939.34;5043483;28;20104;-60
2022/05/08 03:57:09;;;;;;;5.80;3.42;;;;;;;3.00;73.94;93934.13;5042196;28;20028;-59
2022/05/08 03:59:35;;;;;;;6.80;4.05;;;;;;;3.17;73.24;93936.94;5048007;27;20021;-60
2022/05/08 04:02:00;;;;;;;8.05;5.65;;;;;;;3.13;73.88;93933.69;5046715;27;20033;-60
2022/05/08 04:04:26;;;;;;;13.20;6.65;;;;;;;3.21;73.79;93933.97;5046608;28;20024;-60
2022/05/08 04:06:51;;;;;;;6.00;3.97;;;;;;;3.23;74.56;93931.50;5047345;28;20021;-60
2022/05/08 04:09:17;;;;;;;22.65;8.88;;;;;;;3.44;73.82;93932.84;5047387;28;20067;-59
2022/05/08 04:11:42;;;;;;;15.52;7.40;;;;;;;3.48;73.32;93930.59;5046573;28;20055;-58
2022/05/08 04:14:08;;;;;;;16.98;8.50;;;;;;;3.66;72.79;93930.19;5047369;28;20084;-57
2022/05/08 04:16:33;;;;;;;35.08;17.38;;;;;;;3.99;71.88;93934.94;5047333;28;20447;-57
2022/05/08 04:18:59;;;;;;;37.38;17.90;;;;;;;4.00;71.97;93929.00;5046612;28;20021;-58
2022/05/08 04:21:24;;;;;;;45.40;19.17;;;;;;;4.19;71.85;93930.03;5038453;28;20086;-57
2022/05/08 04:26:34;;;;;;;27.40;14.18;;;;;;;5.31;69.23;93940.31;5045531;28;20613;-58
2022/05/08 04:29:01;;;;;;;19.90;9.98;;;;;;;5.64;67.32;93938.72;5043473;28;20479;-57
2022/05/08 04:31:27;;;;;;;9.10;6.13;;;;;;;6.26;65.67;93945.38;5038020;28;20033;-58
2022/05/08 04:33:52;;;;;;;11.50;6.95;;;;;;;7.17;62.40;93953.88;5035861;28;20672;-58
2022/05/08 04:36:18;;;;;;;42.10;17.88;;;;;;;7.63;60.93;93942.59;5039714;28;20024;-58
2022/05/08 04:38:44;;;;;;;25.15;12.38;;;;;;;7.32;62.18;93943.94;5045919;28;20025;-57
2022/05/08 04:41:10;;;;;;;39.28;17.38;;;;;;;7.60;61.93;93949.16;5045332;28;20441;-58
2022/05/08 04:43:35;;;;;;;39.92;17.42;;;;;;;7.99;60.83;93943.19;5045033;28;20033;-58
2022/05/08 04:46:01;;;;;;;20.10;11.88;;;;;;;8.68;59.31;93941.19;5045233;28;20025;-57
2022/05/08 04:48:26;;;;;;;17.52;9.35;;;;;;;9.19;58.53;93939.06;5045133;28;20028;-58
2022/05/08 04:50:52;;;;;;;14.27;8.52;;;;;;;9.18;56.92;93939.63;5045297;28;20028;-58
2022/05/08 04:53:17;;;;;;;15.32;8.07;;;;;;;9.24;56.50;93937.50;5045591;28;20036;-58
2022/05/08 04:55:43;;;;;;;11.48;6.60;;;;;;;9.22;57.04;93943.53;5042633;28;20021;-58
2022/05/08 04:58:08;;;;;;;11.75;6.78;;;;;;;9.28;56.51;93937.91;5045193;28;20041;-58
2022/05/08 05:00:34;;;;;;;10.90;6.18;;;;;;;9.31;57.04;93942.38;5047020;28;20402;-57
2022/05/08 05:03:00;;;;;;;7.85;5.25;;;;;;;9.79;55.97;93941.94;5041969;28;20031;-58
2022/05/08 05:05:26;;;;;;;11.23;6.95;;;;;;;10.26;55.27;93937.25;5047027;28;20029;-58
2022/05/08 05:07:52;;;;;;;18.63;9.80;;;;;;;10.70;54.23;93941.00;5046805;28;20025;-59
2022/05/08 05:10:17;;;;;;;15.82;7.80;;;;;;;11.45;52.81;93943.66;5047009;28;20013;-58
2022/05/08 05:12:43;;;;;;;6.93;4.40;;;;;;;11.81;51.24;93938.19;5037519;28;20152;-58
2022/05/08 05:15:08;;;;;;;7.88;3.78;;;;;;;12.22;49.97;93940.78;5026938;28;20133;-58
2022/05/08 05:17:34;;;;;;;5.35;3.90;;;;;;;12.47;49.24;93943.84;5028058;28;20029;-58
2022/05/08 05:20:00;;;;;;;9.32;4.57;;;;;;;12.38;49.05;93936.81;5038300;28;20029;-58
2022/05/08 05:22:26;;;;;;;7.25;4.63;;;;;;;12.67;48.88;93935.41;5027902;28;20067;-58
2022/05/08 05:24:57;;;;;;;10.02;6.15;;;;;;;13.39;48.41;93929.56;5027667;28;20036;-58
2022/05/08 05:27:24;;;;;;;17.75;8.38;;;;;;;14.17;46.91;93933.13;5039889;28;20065;-58
2022/05/08 05:29:51;;;;;;;15.95;9.27;;;;;;;14.89;44.27;93930.41;5047375;28;20080;-58
2022/05/08 05:32:17;;;;;;;18.83;9.63;;;;;;;15.78;42.28;93930.28;5047524;28;20020;-58
2022/05/08 05:34:43;;;;;;;15.88;9.45;;;;;;;16.89;38.75;93931.59;5039379;28;20041;-58
2022/05/08 05:37:08;;;;;;;18.88;9.07;;;;;;;17.67;37.50;93928.56;5041064;28;20028;-57
2022/05/08 05:39:34;;;;;;;11.10;5.47;;;;;;;17.93;37.19;93927.03;5041206;28;20108;-58
2022/05/08 05:42:00;;;;;;;5.47;3.20;;;;;;;18.17;37.29;93923.94;5039661;28;20028;-57
2022/05/08 05:44:26;;;;;;;6.15;3.13;;;;;;;18.31;36.97;93913.06;5047404;28;20040;-58
2022/05/08 05:49:38;;;;;;;17.35;4.05;;;;;;;18.92;33.94;93923.78;5047362;28;20063;-57
2022/05/08 05:52:06;;;;;;;5.22;3.45;;;;;;;19.01;33.59;93920.22;5047396;28;20053;-57
2022/05/08 05:54:34;;;;;;;4.38;2.90;;;;;;;18.82;33.29;93912.59;5034821;28;20094;-57
2022/05/08 05:56:59;;;;;;;5.20;3.45;;;;;;;18.58;34.69;93921.34;5027358;28;20035;-57
2022/05/08 05:59:24;;;;;;;4.70;3.25;;;;;;;18.05;33.16;93923.06;5027354;28;20038;-57
2022/05/08 06:01:50;;;;;;;6.85;3.97;;;;;;;17.32;34.82;93921.69;5035959;28;20029;-57
2022/05/08 06:04:15;;;;;;;10.05;3.70;;;;;;;16.68;38.30;93926.50;5047334;28;20028;-57
2022/05/08 06:06:41;;;;;;;6.28;2.70;;;;;;;16.13;39.27;93914.31;5047331;28;20028;-57
2022/05/08 06:09:07;;;;;;;5.65;3.65;;;;;;;15.50;42.04;93922.38;5047373;28;20029;-56
2022/05/08 06:11:33;;;;;;;5.78;3.25;;;;;;;15.07;43.94;93913.22;5047420;28;20478;-56
2022/05/08 06:13:58;;;;;;;6.50;3.13;;;;;;;15.07;43.46;93918.06;5027449;28;20071;-56
2022/05/08 06:16:24;;;;;;;10.60;3.45;;;;;;;15.22;44.13;93922.75;5027165;28;20025;-57
2022/05/08 06:18:49;;;;;;;5.30;3.17;;;;;;;15.43;43.37;93923.13;5025725;28;20029;-56
2022/05/08 06:21:15;;;;;;;6.45;3.75;;;;;;;15.53;43.03;93916.41;5027164;28;20127;-56
2022/05/08 06:23:40;;;;;;;11.10;3.72;;;;;;;15.59;41.67;93921.75;5026858;28;20501;-56
2022/05/08 06:26:06;;;;;;;6.03;3.05;;;;;;;15.77;40.54;93907.25;5026830;28;20077;-56
2022/05/08 06:28:32;;;;;;;6.03;4.18;;;;;;;16.28;39.11;93911.38;5026651;28;20136;-56
2022/05/08 06:31:00;;;;;;;6.45;3.33;;;;;;;16.88;37.53;93907.81;5027385;28;20509;-56
2022/05/08 06:33:26;;;;;;;3.78;2.90;;;;;;;17.51;36.79;93916.19;5026250;28;20033;-57
2022/05/08 06:35:52;;;;;;;6.93;3.63;;;;;;;17.89;37.71;93907.13;5028872;28;20022;-56
2022/05/08 06:38:17;;;;;;;8.65;3.25;;;;;;;17.93;38.61;93902.59;5046540;28;20028;-56
2022/05/08 06:40:43;;;;;;;5.32;3.47;;;;;;;17.93;38.53;93904.66;5045406;28;20028;-57
2022/05/08 06:43:09;;;;;;;5.82;3.63;;;;;;;18.52;37.24;93904.09;5046620;28;20033;-57
2022/05/08 06:45:35;;;;;;;4.40;3.40;;;;;;;19.00;36.01;93899.16;5046529;28;20081;-56
2022/05/08 06:48:01;;;;;;;8.63;4.18;;;;;;;19.56;35.67;93899.53;5046671;28;20025;-56
2022/05/08 06:50:29;;;;;;;5.75;3.13;;;;;;;19.61;32.96;93893.63;5036861;28;20559;-56
2022/05/08 06:52:55;;;;;;;5.65;3.42;;;;;;;19.25;33.99;93879.91;5026928;28;20037;-56
2022/05/08 07:05:55;;;;;;;11.97;9.27;;;;;;;21.79;29.71;93887.88;5077862;27;1415665;-57
2022/05/08 07:08:21;;;;;;;286.80;261.73;;;;;;;21.82;26.74;93883.88;5105578;28;20031;-57
2022/05/08 07:10:47;;;;;;;16.45;12.95;;;;;;;22.28;27.87;93878.19;5087771;28;20047;-58
2022/05/08 07:13:13;;;;;;;32.88;29.48;;;;;;;22.90;25.78;93880.25;5090370;28;20058;-58
2022/05/08 07:15:38;;;;;;;7.43;5.10;;;;;;;23.76;23.67;93879.31;5088281;28;20027;-57
2022/05/08 07:18:04;;;;;;;9.30;2.47;;;;;;;24.05;23.16;93882.25;5105931;28;20058;-57
2022/05/08 07:20:29;;;;;;;6.35;2.17;;;;;;;25.31;24.60;93889.84;5105471;28;20100;-57
2022/05/08 07:22:55;;;;;;;5.90;2.30;;;;;;;26.42;21.95;93875.00;5105385;28;20024;-58
2022/05/08 07:25:21;;;;;;;3.38;2.38;;;;;;;27.63;19.82;93879.84;5105287;28;20016;-58
2022/05/08 07:27:46;;;;;;;4.18;2.22;;;;;;;28.48;20.39;93877.94;5104963;28;20060;-58
2022/05/08 07:30:12;;;;;;;7.18;2.15;;;;;;;29.51;19.81;93872.78;5104896;28;20042;-58
2022/05/08 07:32:38;;;;;;;27.08;24.42;;;;;;;30.27;18.28;93882.84;5105131;28;20404;-58
2022/05/08 07:37:49;;;;;;;9.88;5.57;;;;;;;29.57;18.11;93873.69;5105413;28;20043;-58
2022/05/08 07:40:14;;;;;;;4.90;4.00;;;;;;;29.32;19.30;93870.78;5105173;28;20416;-58
2022/05/08 07:42:39;;;;;;;7.78;4.47;;;;;;;29.63;17.33;93856.81;5104787;28;20024;-58
2022/05/08 07:45:06;;;;;;;3.67;2.83;;;;;;;30.10;17.52;93873.13;5105270;28;20023;-58
2022/05/08 07:47:32;;;;;;;3.15;1.90;;;;;;;30.44;17.03;93871.25;5105286;28;20065;-58
2022/05/08 07:49:57;;;;;;;2.50;2.30;;;;;;;29.70;16.76;93869.81;5105027;28;20024;-58
2022/05/08 07:52:23;;;;;;;130.82;118.35;;;;;;;28.51;18.19;93871.69;5104583;28;20051;-58
2022/05/08 07:54:49;;;;;;;18.30;16.55;;;;;;;28.89;17.74;93863.72;5102875;28;20027;-58
2022/05/08 07:57:14;;;;;;;5.57;4.00;;;;;;;30.02;18.59;93872.19;5104629;28;20031;-58
2022/05/08 07:59:39;;;;;;;4.88;2.53;;;;;;;31.04;17.23;93863.53;5104619;28;20095;-58
2022/05/08 08:02:05;;;;;;;3.47;1.98;;;;;;;31.64;15.40;93872.06;5104596;28;20020;-59
2022/05/08 08:04:31;;;;;;;2.67;1.80;;;;;;;31.15;15.69;93870.91;5090754;28;20051;-58
2022/05/08 08:07:15;;;;;;;18.52;16.77;;;;;;;30.79;16.67;93867.16;5072479;28;20106;-58
2022/05/08 08:09:41;;;;;;;67.20;56.75;;;;;;;30.40;17.23;93859.75;5072788;28;20027;-58
2022/05/08 08:12:07;;;;;;;4.28;3.78;;;;;;;30.97;17.61;93855.50;5072869;28;20029;-59
2022/05/08 08:14:32;;;;;;;7.97;2.72;;;;;;;31.49;16.69;93862.44;5073084;28;20027;-58
2022/05/08 08:16:58;;;;;;;14.65;13.25;;;;;;;31.62;16.62;93866.31;5072945;28;20016;-58
2022/05/08 08:19:23;;;;;;;19.90;18.13;;;;;;;32.15;16.34;93863.16;5090157;28;20387;-59
2022/05/08 08:21:49;;;;;;;65.78;42.92;;;;;;;32.11;15.34;93857.38;5075525;28;20090;-58
2022/05/08 08:24:14;;;;;;;15.68;10.23;;;;;;;32.05;16.48;93857.25;5090738;28;20405;-58
2022/05/08 08:26:41;;;;;;;3.03;2.20;;;;;;;31.39;16.29;93862.94;5091314;28;20027;-59
2022/05/08 08:29:07;;;;;;;7.78;3.53;;;;;;;32.10;16.85;93855.91;5082170;28;20073;-59
2022/05/08 08:31:32;;;;;;;9.70;8.65;;;;;;;33.11;14.80;93864.25;5071916;28;20111;-59
2022/05/08 08:33:58;;;;;;;4.13;3.72;;;;;;;32.39;14.90;93855.06;5071597;28;20111;-59
2022/05/08 08:36:23;;;;;;;18.88;14.07;;;;;;;32.12;16.04;93848.13;5074408;28;20036;-58
2022/05/08 08:38:49;;;;;;;7.03;6.00;;;;;;;32.01;15.52;93854.34;5106774;28;20023;-59
2022/05/08 08:41:15;;;;;;;3.78;2.88;;;;;;;32.18;14.72;93853.25;5106961;28;20545;-58
2022/05/08 08:49:25;;;;;;;113.53;104.35;;;;;;;33.22;13.99;93850.84;5070170;28;20100;-59
2022/05/08 08:51:51;;;;;;;6.78;4.70;;;;;;;32.68;13.34;93850.63;5069592;28;20039;-58
2022/05/08 08:54:20;;;;;;;2.80;2.42;;;;;;;33.29;14.63;93838.78;5069463;28;20029;-60
2022/05/08 08:56:47;;;;;;;1.80;1.70;;;;;;;33.93;13.57;93847.56;5077067;28;20059;-60
2022/05/08 08:59:13;;;;;;;3.42;2.22;;;;;;;33.85;14.31;93844.59;5086180;28;20036;-59
2022/05/08 09:01:42;;;;;;;2.92;1.70;;;;;;;33.42;13.25;93839.66;5088219;28;20464;-60
2022/05/08 09:04:09;;;;;;;3.55;1.98;;;;;;;32.80;13.78;93828.69;5086180;28;20027;-59
2022/05/08 09:06:42;;;;;;;2.63;1.80;;;;;;;32.72;14.96;93851.44;5078958;28;20024;-60
2022/05/08 09:09:27;;;;;;;2.65;1.98;;;;;;;33.19;15.60;93843.63;5088604;28;20059;-60
2022/05/08 09:11:54;;;;;;;206.70;187.32;;;;;;;33.94;13.36;93840.41;5088154;28;20028;-60
2022/05/08 09:14:34;;;;;;;8.90;8.18;;;;;;;33.72;13.81;93820.09;5088009;28;20028;-60
2022/05/08 09:17:01;;;;;;;4.22;1.95;;;;;;;33.61;13.17;93841.44;5087088;28;20068;-60
2022/05/08 09:19:37;;;;;;;1.80;1.50;;;;;;;32.77;12.12;93832.16;5087295;28;20653;-60
2022/05/08 09:22:05;;;;;;;4.88;1.52;;;;;;;32.89;11.99;93821.69;5087073;28;20047;-60
2022/05/08 09:24:30;;;;;;;12.38;1.77;;;;;;;33.71;11.61;93835.81;5087769;28;20042;-60
2022/05/08 09:27:13;;;;;;;3.17;1.95;;;;;;;34.49;13.33;93827.47;5086168;28;20823;-60
2022/05/08 09:29:39;;;;;;;1.83;1.35;;;;;;;34.48;10.89;93828.19;5065912;28;20032;-60
2022/05/08 09:32:05;;;;;;;5.32;4.47;;;;;;;33.83;10.53;93832.41;5066064;28;20390;-59
2022/05/08 09:34:30;;;;;;;2.63;1.42;;;;;;;33.55;9.92;93830.59;5066559;28;20035;-59
2022/05/08 09:37:09;;;;;;;2.42;1.10;;;;;;;31.48;9.22;93832.47;5067655;28;20051;-60
2022/05/08 09:39:34;;;;;;;;;;;;;;;30.98;9.71;93836.97;5070890;28;20500;-59
2022/05/08 09:41:59;;;;;;;1.70;1.20;;;;;;;30.48;10.69;93834.31;5090921;28;19908;-59
2022/05/08 09:44:25;;;;;;;4.45;0.90;;;;;;;30.24;12.75;93830.06;5091337;28;20426;-60
2022/05/08 09:46:51;;;;;;;2.08;0.93;;;;;;;29.29;11.61;93835.88;5073188;28;20043;-59
2022/05/08 09:49:20;;;;;;;1.02;0.93;;;;;;;29.39;12.46;93826.94;5091481;28;20024;-59
2022/05/08 09:51:47;;;;;;;2.78;1.10;;;;;;;29.28;10.83;93813.78;5091465;28;20482;-60
2022/05/08 09:54:17;;;;;;;1.20;1.00;;;;;;;28.41;11.65;93816.66;5088218;28;20077;-59
2022/05/08 09:56:44;;;;;;;1.33;1.23;;;;;;;28.22;12.08;93809.63;5070726;28;20120;-59
2022/05/08 09:59:14;;;;;;;1.63;1.52;;;;;;;28.69;12.35;93814.78;5077804;28;20565;-59
2022/05/08 10:01:41;;;;;;;7.15;4.70;;;;;;;29.49;12.27;93816.56;5091246;28;20023;-59
2022/05/08 10:04:07;;;;;;;11.55;2.25;;;;;;;29.81;11.89;93813.94;5090373;28;20527;-59
2022/05/08 10:06:35;;;;;;;57.88;48.67;;;;;;;29.92;11.30;93815.69;5090895;28;20028;-59
2022/05/08 10:14:30;;;;;;;1.65;1.15;;;;;;;29.77;12.50;93811.72;5075520;28;20035;-59
2022/05/08 10:17:03;;;;;;;63.33;57.53;;;;;;;29.89;12.28;93799.91;5090681;28;20530;-59
2022/05/08 10:19:28;;;;;;;59.72;54.70;;;;;;;30.13;11.14;93806.28;5087951;28;20031;-60
2022/05/08 10:21:57;;;;;;;2.55;2.10;;;;;;;30.29;10.90;93803.13;5087182;28;20020;-59
2022/05/08 10:24:30;;;;;;;1.38;0.88;;;;;;;29.58;11.12;93811.84;5085014;28;20094;-59
2022/05/08 10:27:11;;;;;;;38.17;34.42;;;;;;;29.35;11.60;93795.50;5070658;28;20028;-59
2022/05/08 10:29:49;;;;;;;7.53;4.55;;;;;;;30.16;12.31;93795.66;5074675;28;20400;-59
2022/05/08 10:32:33;;;;;;;1.40;1.30;;;;;;;29.87;13.08;93789.22;5084721;28;20024;-59
2022/05/08 10:35:16;;;;;;;2.92;2.58;;;;;;;29.91;14.07;93786.47;5090648;28;20052;-59
2022/05/08 10:37:51;;;;;;;3.70;3.40;;;;;;;30.31;13.75;93771.88;5090378;28;20020;-59
2022/05/08 10:40:22;;;;;;;1.98;1.10;;;;;;;29.93;13.00;93786.53;5090751;28;20024;-59
2022/05/08 10:43:14;;;;;;;4.35;1.52;;;;;;;30.12;12.84;93792.72;5090045;28;20046;-60
2022/05/08 10:45:42;;;;;;;1.90;1.50;;;;;;;29.68;12.44;93780.81;5076810;28;20036;-60
2022/05/08 10:48:17;;;;;;;1.38;1.25;;;;;;;28.84;13.74;93773.31;5090611;28;20035;-59
2022/05/08 10:50:54;;;;;;;1.35;1.23;;;;;;;28.12;13.77;93777.31;5081641;28;20059;-59
2022/05/08 10:53:33;;;;;;;132.77;120.40;;;;;;;27.49;13.71;93763.75;5082830;28;20029;-59
2022/05/08 10:56:09;;;;;;;3.50;3.20;;;;;;;27.59;14.67;93771.91;5090084;28;20070;-59
2022/05/08 10:58:37;;;;;;;2.80;1.88;;;;;;;27.99;20.40;93775.44;5090620;28;20024;-59
2022/05/08 11:01:06;;;;;;;2.38;1.38;;;;;;;27.79;14.91;93783.97;5090225;28;20058;-59
2022/05/08 11:03:35;;;;;;;2.83;2.13;;;;;;;28.08;15.57;93775.09;5090185;28;20045;-59
2022/05/08 11:06:00;;;;;;;2.13;1.60;;;;;;;27.88;15.56;93779.28;5089948;28;20051;-59
2022/05/08 11:08:31;;;;;;;2.63;2.17;;;;;;;27.95;22.00;93772.44;5090211;28;20408;-59
2022/05/08 11:11:09;;;;;;;2.75;1.20;;;;;;;27.87;16.35;93772.19;5079467;28;20024;-59
2022/05/08 11:13:38;;;;;;;3.83;1.80;;;;;;;28.26;21.01;93769.28;5070061;28;20032;-59
2022/05/08 11:16:04;;;;;;;3.38;2.28;;;;;;;28.27;21.73;93771.47;5070027;28;20464;-59
2022/05/08 11:18:29;;;;;;;11.20;2.97;;;;;;;27.74;22.47;93768.19;5069958;28;20048;-60
2022/05/08 11:21:00;;;;;;;4.35;3.03;;;;;;;27.50;24.30;93770.91;5070030;28;20021;-60
2022/05/08 11:23:39;;;;;;;3.45;2.40;;;;;;;26.57;23.70;93766.59;5069793;28;20505;-60
2022/05/08 11:26:06;;;;;;;3.25;2.65;;;;;;;26.27;25.63;93768.19;5070098;28;20090;-57
2022/05/08 11:28:34;;;;;;;3.50;2.50;;;;;;;25.65;27.54;93768.34;5069650;28;20020;-57
2022/05/08 11:31:16;;;;;;;3.92;2.10;;;;;;;25.43;29.50;93765.28;5077149;28;20020;-57
2022/05/08 11:36:28;;;;;;;3.65;2.70;;;;;;;25.73;28.51;93763.78;5068812;28;20059;-58
2022/05/08 11:39:03;;;;;;;2.78;2.15;;;;;;;25.72;24.74;93759.50;5068454;28;20040;-57
2022/05/08 11:41:31;;;;;;;8.93;2.30;;;;;;;25.59;29.31;93766.00;5071362;28;20528;-58
2022/05/08 11:43:58;;;;;;;3.78;2.63;;;;;;;25.50;26.85;93755.72;5075214;28;20073;-58
2022/05/08 11:46:34;;;;;;;4.93;2.35;;;;;;;25.25;30.27;93759.53;5090806;28;20523;-57
2022/05/08 11:49:00;;;;;;;5.13;2.35;;;;;;;25.30;29.55;93764.00;5093371;28;20115;-57
2022/05/08 11:51:37;;;;;;;2.55;2.20;;;;;;;25.10;29.46;93763.09;5093632;28;20484;-57
2022/05/08 11:54:03;;;;;;;3.55;2.78;;;;;;;25.01;28.99;93755.63;5093603;28;20024;-58
2022/05/08 11:56:33;;;;;;;2.70;2.50;;;;;;;24.81;29.62;93757.53;5093345;28;20100;-58
2022/05/08 11:59:00;;;;;;;3.72;2.60;;;;;;;24.91;30.09;93748.78;5093578;28;20048;-58
2022/05/08 12:01:33;;;;;;;8.10;2.80;;;;;;;24.66;28.91;93736.38;5093106;28;20028;-57
2022/05/08 12:04:28;;;;;;;11.73;2.85;;;;;;;24.74;31.39;93744.47;5092590;28;20023;-57
2022/05/08 12:07:25;;;;;;;3.58;2.63;;;;;;;24.81;29.02;93737.75;5093110;28;20024;-57
2022/05/08 12:09:53;;;;;;;3.08;2.50;;;;;;;24.70;30.49;93739.38;5075518;28;20111;-58
2022/05/08 12:12:26;;;;;;;3.85;2.08;;;;;;;24.44;31.08;93740.97;5090152;28;20086;-58
2022/05/08 12:14:59;;;;;;;5.63;2.67;;;;;;;24.42;31.57;93748.59;5080253;28;20072;-59
2022/05/08 12:17:25;;;;;;;3.50;2.50;;;;;;;24.31;29.39;93743.84;5084299;28;20056;-60